Friday, May 29, 2015, 6:11 PM EDT
Back to Local

KPTW, Pottstown Limerick Airport

Location: Royersford, PA, United States Lat: 40.233
Local Time: 6:11 PM EDT (22:11 GMT) Lon: -75.55
Time Zone: US/Eastern Elev: 291 ft

Show me the last for .
Show Decoded

2015-05-29 17:54 METAR KPTW 292154Z AUTO 20006KT 10SM CLR 29/17 A3020 RMK AO2 SLP223 T02890167 =
2015-05-29 16:54 METAR KPTW 292054Z AUTO 19006KT 10SM FEW055 29/16 A3022 RMK AO2 SLP227 T02940161
                 58018 =
2015-05-29 15:54 METAR KPTW 291954Z AUTO 18007KT 10SM CLR 29/16 A3023 RMK AO2 SLP233 T02940156 =
2015-05-29 14:54 METAR KPTW 291854Z AUTO 14004KT 10SM CLR 28/15 A3025 RMK AO2 SLP240 T02830150 =
2015-05-29 13:54 METAR KPTW 291754Z AUTO VRB04KT 10SM CLR 28/14 A3027 RMK AO2 SLP245 T02780144
                 10283 20194 56012 =
2015-05-29 11:54 METAR KPTW 291554Z AUTO 10SM CLR 26/14 A3029 RMK AO2 SLP252 T02610139 =
2015-05-29 10:54 METAR KPTW 291454Z AUTO VRB04KT 10SM CLR 24/13 A3030 RMK AO2 SLP257 T02440133
                 58006 =
2015-05-29 09:54 METAR KPTW 291354Z AUTO 07007KT 10SM CLR 23/13 A3032 RMK AO2 SLP261 T02280128 =
2015-05-29 08:54 METAR KPTW 291254Z AUTO 09005KT 10SM CLR 21/13 A3032 RMK AO2 SLP263 T02110133 =
2015-05-29 07:54 METAR KPTW 291154Z AUTO 06004KT 10SM CLR 19/13 A3032 RMK AO2 SLP263 T01940133
                 10194 20144 51015 =
2015-05-29 06:54 METAR KPTW 291054Z AUTO 00000KT 10SM CLR 17/13 A3031 RMK AO2 SLP259 T01720133 =
2015-05-29 05:54 METAR KPTW 290954Z AUTO 00000KT 10SM CLR 15/12 A3030 RMK AO2 SLP255 T01500122 =
2015-05-29 04:54 METAR KPTW 290854Z AUTO 04004KT 10SM CLR 15/13 A3028 RMK AO2 SLP248 T01500128
                 55001 =
2015-05-29 03:54 METAR KPTW 290754Z AUTO 00000KT 10SM FEW070 16/13 A3027 RMK AO2 SLP247 T01560128
                 =
2015-05-29 01:54 METAR KPTW 290554Z AUTO 00000KT 10SM CLR 17/12 A3028 RMK AO2 SLP249 T01720122
                 10261 20167 51012 =
2015-05-29 00:54 METAR KPTW 290454Z AUTO 00000KT 10SM CLR 18/12 A3027 RMK AO2 SLP245 T01830117
                 403000178 =
2015-05-28 23:54 METAR KPTW 290354Z AUTO 00000KT 10SM CLR 21/12 A3025 RMK AO2 SLP240 T02110117 =
2015-05-28 22:54 METAR KPTW 290254Z AUTO 04005KT 10SM CLR 22/12 A3024 RMK AO2 SLP237 T02220117
                 51020 =
2015-05-28 21:54 METAR KPTW 290154Z AUTO 03006KT 10SM CLR 23/12 A3023 RMK AO2 SLP231 T02330117 =
2015-05-28 20:54 METAR KPTW 290054Z AUTO 36006KT 10SM CLR 24/15 A3020 RMK AO2 SLP223 T02440150 =
2015-05-28 19:54 METAR KPTW 282354Z AUTO 00000KT 10SM CLR 26/15 A3018 RMK AO2 SLP217 T02610150
                 10300 20261 53007 =
2015-05-28 18:54 METAR KPTW 282254Z AUTO 33006KT 10SM CLR 28/14 A3017 RMK AO2 SLP212 T02780139 =

Support USWX by starting your Amazon purchase here.